sensor_id;sensor_type;location;lat;lon;timestamp;P1;durP1;ratioP1;P2;durP2;ratioP2
3066;SDS011;1544;48.834;9.194;2023-07-08T00:01:33;7.30;;;5.40;;
3066;SDS011;1544;48.834;9.194;2023-07-08T00:04:09;6.90;;;6.03;;
3066;SDS011;1544;48.834;9.194;2023-07-08T00:06:45;7.30;;;6.47;;
3066;SDS011;1544;48.834;9.194;2023-07-08T00:09:22;5.60;;;5.10;;
3066;SDS011;1544;48.834;9.194;2023-07-08T00:11:58;7.80;;;6.03;;
3066;SDS011;1544;48.834;9.194;2023-07-08T00:14:34;6.30;;;5.70;;
3066;SDS011;1544;48.834;9.194;2023-07-08T00:17:11;9.23;;;6.80;;
3066;SDS011;1544;48.834;9.194;2023-07-08T00:19:50;6.57;;;5.60;;
3066;SDS011;1544;48.834;9.194;2023-07-08T00:22:29;6.37;;;5.50;;
3066;SDS011;1544;48.834;9.194;2023-07-08T00:25:05;6.70;;;6.10;;
3066;SDS011;1544;48.834;9.194;2023-07-08T00:27:42;8.67;;;6.17;;
3066;SDS011;1544;48.834;9.194;2023-07-08T00:33:00;9.60;;;6.00;;
3066;SDS011;1544;48.834;9.194;2023-07-08T00:35:37;6.03;;;5.53;;
3066;SDS011;1544;48.834;9.194;2023-07-08T00:38:20;5.47;;;5.03;;
3066;SDS011;1544;48.834;9.194;2023-07-08T00:41:25;6.60;;;5.40;;
3066;SDS011;1544;48.834;9.194;2023-07-08T00:44:10;5.30;;;4.80;;
3066;SDS011;1544;48.834;9.194;2023-07-08T00:46:55;6.43;;;5.63;;
3066;SDS011;1544;48.834;9.194;2023-07-08T00:49:49;5.97;;;4.87;;
3066;SDS011;1544;48.834;9.194;2023-07-08T00:52:31;5.57;;;4.63;;
3066;SDS011;1544;48.834;9.194;2023-07-08T00:55:09;6.80;;;6.10;;
3066;SDS011;1544;48.834;9.194;2023-07-08T00:57:45;6.60;;;5.63;;
3066;SDS011;1544;48.834;9.194;2023-07-08T01:00:22;8.47;;;6.70;;
3066;SDS011;1544;48.834;9.194;2023-07-08T01:02:58;5.80;;;5.20;;
3066;SDS011;1544;48.834;9.194;2023-07-08T01:05:34;5.33;;;4.83;;
3066;SDS011;1544;48.834;9.194;2023-07-08T01:08:13;9.97;;;5.73;;
3066;SDS011;1544;48.834;9.194;2023-07-08T01:10:52;8.33;;;6.07;;
3066;SDS011;1544;48.834;9.194;2023-07-08T01:13:37;7.03;;;6.30;;
3066;SDS011;1544;48.834;9.194;2023-07-08T01:16:18;6.23;;;5.63;;
3066;SDS011;1544;48.834;9.194;2023-07-08T01:18:54;6.20;;;5.07;;
3066;SDS011;1544;48.834;9.194;2023-07-08T01:21:32;6.30;;;5.60;;
3066;SDS011;1544;48.834;9.194;2023-07-08T01:24:11;6.70;;;5.83;;
3066;SDS011;1544;48.834;9.194;2023-07-08T01:26:47;7.67;;;6.13;;
3066;SDS011;1544;48.834;9.194;2023-07-08T01:29:24;7.27;;;5.47;;
3066;SDS011;1544;48.834;9.194;2023-07-08T01:32:00;5.83;;;5.20;;
3066;SDS011;1544;48.834;9.194;2023-07-08T01:34:38;7.37;;;5.87;;
3066;SDS011;1544;48.834;9.194;2023-07-08T01:37:14;6.10;;;5.50;;
3066;SDS011;1544;48.834;9.194;2023-07-08T01:39:50;6.50;;;5.43;;
3066;SDS011;1544;48.834;9.194;2023-07-08T01:42:26;6.83;;;6.13;;
3066;SDS011;1544;48.834;9.194;2023-07-08T01:45:03;6.73;;;6.03;;
3066;SDS011;1544;48.834;9.194;2023-07-08T01:47:50;6.33;;;5.70;;
3066;SDS011;1544;48.834;9.194;2023-07-08T01:50:32;6.37;;;5.10;;
3066;SDS011;1544;48.834;9.194;2023-07-08T01:53:14;6.80;;;5.60;;
3066;SDS011;1544;48.834;9.194;2023-07-08T01:55:57;7.43;;;6.47;;
3066;SDS011;1544;48.834;9.194;2023-07-08T01:58:34;6.80;;;5.63;;
3066;SDS011;1544;48.834;9.194;2023-07-08T02:01:11;7.90;;;6.77;;
3066;SDS011;1544;48.834;9.194;2023-07-08T02:03:46;5.60;;;4.90;;
3066;SDS011;1544;48.834;9.194;2023-07-08T02:06:23;5.80;;;4.97;;
3066;SDS011;1544;48.834;9.194;2023-07-08T02:08:58;7.33;;;5.40;;
3066;SDS011;1544;48.834;9.194;2023-07-08T02:11:36;6.43;;;5.83;;
3066;SDS011;1544;48.834;9.194;2023-07-08T02:14:12;6.17;;;5.57;;
3066;SDS011;1544;48.834;9.194;2023-07-08T02:16:48;6.53;;;5.63;;
3066;SDS011;1544;48.834;9.194;2023-07-08T02:19:24;17.57;;;6.33;;
3066;SDS011;1544;48.834;9.194;2023-07-08T02:22:02;8.13;;;6.40;;
3066;SDS011;1544;48.834;9.194;2023-07-08T02:24:39;6.90;;;5.43;;
3066;SDS011;1544;48.834;9.194;2023-07-08T02:27:15;6.90;;;5.60;;
3066;SDS011;1544;48.834;9.194;2023-07-08T02:29:51;7.20;;;5.90;;
3066;SDS011;1544;48.834;9.194;2023-07-08T02:32:28;6.83;;;5.60;;
3066;SDS011;1544;48.834;9.194;2023-07-08T02:35:04;6.67;;;5.37;;
3066;SDS011;1544;48.834;9.194;2023-07-08T02:37:42;6.47;;;5.53;;
3066;SDS011;1544;48.834;9.194;2023-07-08T02:40:18;5.80;;;5.17;;
3066;SDS011;1544;48.834;9.194;2023-07-08T02:42:55;5.90;;;5.30;;
3066;SDS011;1544;48.834;9.194;2023-07-08T02:45:30;6.00;;;5.37;;
3066;SDS011;1544;48.834;9.194;2023-07-08T02:48:06;5.93;;;5.37;;
3066;SDS011;1544;48.834;9.194;2023-07-08T02:50:42;8.27;;;6.63;;
3066;SDS011;1544;48.834;9.194;2023-07-08T02:53:18;5.80;;;5.20;;
3066;SDS011;1544;48.834;9.194;2023-07-08T02:55:54;6.20;;;5.37;;
3066;SDS011;1544;48.834;9.194;2023-07-08T02:58:31;5.27;;;4.77;;
3066;SDS011;1544;48.834;9.194;2023-07-08T03:01:07;6.53;;;4.63;;
3066;SDS011;1544;48.834;9.194;2023-07-08T03:03:45;6.80;;;6.10;;
3066;SDS011;1544;48.834;9.194;2023-07-08T03:06:22;7.27;;;6.50;;
3066;SDS011;1544;48.834;9.194;2023-07-08T03:08:58;6.70;;;6.00;;
3066;SDS011;1544;48.834;9.194;2023-07-08T03:11:34;6.50;;;5.40;;
3066;SDS011;1544;48.834;9.194;2023-07-08T03:14:11;7.60;;;6.20;;
3066;SDS011;1544;48.834;9.194;2023-07-08T03:16:47;6.30;;;5.70;;
3066;SDS011;1544;48.834;9.194;2023-07-08T03:19:23;6.63;;;5.00;;
3066;SDS011;1544;48.834;9.194;2023-07-08T03:22:00;6.10;;;5.13;;
3066;SDS011;1544;48.834;9.194;2023-07-08T03:24:40;8.37;;;5.97;;
3066;SDS011;1544;48.834;9.194;2023-07-08T03:27:25;9.00;;;5.97;;
3066;SDS011;1544;48.834;9.194;2023-07-08T03:30:01;6.80;;;5.60;;
3066;SDS011;1544;48.834;9.194;2023-07-08T03:32:41;8.03;;;6.10;;
3066;SDS011;1544;48.834;9.194;2023-07-08T03:35:17;6.60;;;5.93;;
3066;SDS011;1544;48.834;9.194;2023-07-08T03:37:53;8.93;;;6.27;;
3066;SDS011;1544;48.834;9.194;2023-07-08T03:40:29;10.50;;;6.17;;
3066;SDS011;1544;48.834;9.194;2023-07-08T03:43:06;8.20;;;6.53;;
3066;SDS011;1544;48.834;9.194;2023-07-08T03:45:43;7.03;;;5.73;;
3066;SDS011;1544;48.834;9.194;2023-07-08T03:48:22;6.53;;;5.93;;
3066;SDS011;1544;48.834;9.194;2023-07-08T03:50:58;8.03;;;5.80;;
3066;SDS011;1544;48.834;9.194;2023-07-08T03:53:34;7.20;;;6.30;;
3066;SDS011;1544;48.834;9.194;2023-07-08T03:56:11;7.17;;;5.63;;
3066;SDS011;1544;48.834;9.194;2023-07-08T03:58:49;6.93;;;6.17;;
3066;SDS011;1544;48.834;9.194;2023-07-08T04:01:26;6.60;;;6.00;;
3066;SDS011;1544;48.834;9.194;2023-07-08T04:04:03;7.00;;;6.30;;
3066;SDS011;1544;48.834;9.194;2023-07-08T04:06:42;7.00;;;6.10;;
3066;SDS011;1544;48.834;9.194;2023-07-08T04:09:20;7.73;;;6.97;;
3066;SDS011;1544;48.834;9.194;2023-07-08T04:11:56;9.20;;;6.03;;
3066;SDS011;1544;48.834;9.194;2023-07-08T04:14:33;8.03;;;7.13;;
3066;SDS011;1544;48.834;9.194;2023-07-08T04:17:09;7.70;;;6.90;;
3066;SDS011;1544;48.834;9.194;2023-07-08T04:19:46;6.93;;;6.27;;
3066;SDS011;1544;48.834;9.194;2023-07-08T04:22:22;6.37;;;5.67;;
3066;SDS011;1544;48.834;9.194;2023-07-08T04:24:59;9.50;;;7.07;;
3066;SDS011;1544;48.834;9.194;2023-07-08T04:27:35;8.37;;;6.80;;
3066;SDS011;1544;48.834;9.194;2023-07-08T04:30:14;8.03;;;6.10;;
3066;SDS011;1544;48.834;9.194;2023-07-08T04:32:58;8.47;;;6.03;;
3066;SDS011;1544;48.834;9.194;2023-07-08T04:35:34;6.50;;;5.57;;
3066;SDS011;1544;48.834;9.194;2023-07-08T04:38:21;6.43;;;5.33;;
3066;SDS011;1544;48.834;9.194;2023-07-08T04:41:00;6.40;;;5.77;;
3066;SDS011;1544;48.834;9.194;2023-07-08T04:43:36;9.07;;;6.13;;
3066;SDS011;1544;48.834;9.194;2023-07-08T04:46:18;6.97;;;5.37;;
3066;SDS011;1544;48.834;9.194;2023-07-08T04:49:04;6.77;;;6.03;;
3066;SDS011;1544;48.834;9.194;2023-07-08T04:51:42;7.17;;;5.93;;
3066;SDS011;1544;48.834;9.194;2023-07-08T04:54:19;6.37;;;5.27;;
3066;SDS011;1544;48.834;9.194;2023-07-08T04:56:55;6.77;;;6.07;;
3066;SDS011;1544;48.834;9.194;2023-07-08T04:59:31;6.57;;;5.10;;
3066;SDS011;1544;48.834;9.194;2023-07-08T05:02:10;5.97;;;4.90;;
3066;SDS011;1544;48.834;9.194;2023-07-08T05:04:46;6.30;;;5.30;;
3066;SDS011;1544;48.834;9.194;2023-07-08T05:07:22;8.73;;;6.30;;
3066;SDS011;1544;48.834;9.194;2023-07-08T05:09:58;5.13;;;4.73;;
3066;SDS011;1544;48.834;9.194;2023-07-08T05:12:34;5.40;;;4.83;;
3066;SDS011;1544;48.834;9.194;2023-07-08T05:15:10;5.80;;;4.93;;
3066;SDS011;1544;48.834;9.194;2023-07-08T05:17:46;6.10;;;5.50;;
3066;SDS011;1544;48.834;9.194;2023-07-08T05:20:22;6.73;;;6.03;;
3066;SDS011;1544;48.834;9.194;2023-07-08T05:22:58;7.37;;;5.70;;
3066;SDS011;1544;48.834;9.194;2023-07-08T05:25:34;10.40;;;7.03;;
3066;SDS011;1544;48.834;9.194;2023-07-08T05:28:11;6.77;;;6.07;;
3066;SDS011;1544;48.834;9.194;2023-07-08T05:30:47;8.17;;;5.77;;
3066;SDS011;1544;48.834;9.194;2023-07-08T05:33:23;7.13;;;6.00;;
3066;SDS011;1544;48.834;9.194;2023-07-08T05:36:02;6.80;;;5.77;;
3066;SDS011;1544;48.834;9.194;2023-07-08T05:38:39;7.23;;;6.20;;
3066;SDS011;1544;48.834;9.194;2023-07-08T05:41:15;6.13;;;5.53;;
3066;SDS011;1544;48.834;9.194;2023-07-08T05:43:51;8.40;;;5.70;;
3066;SDS011;1544;48.834;9.194;2023-07-08T05:46:28;5.43;;;5.00;;
3066;SDS011;1544;48.834;9.194;2023-07-08T05:49:04;6.87;;;6.17;;
3066;SDS011;1544;48.834;9.194;2023-07-08T05:51:40;6.87;;;6.17;;
3066;SDS011;1544;48.834;9.194;2023-07-08T05:54:16;5.63;;;5.10;;
3066;SDS011;1544;48.834;9.194;2023-07-08T05:56:54;6.33;;;5.30;;
3066;SDS011;1544;48.834;9.194;2023-07-08T05:59:30;5.97;;;5.47;;
3066;SDS011;1544;48.834;9.194;2023-07-08T06:02:08;5.50;;;5.00;;
3066;SDS011;1544;48.834;9.194;2023-07-08T06:04:47;6.23;;;5.63;;
3066;SDS011;1544;48.834;9.194;2023-07-08T06:07:23;5.03;;;4.53;;
3066;SDS011;1544;48.834;9.194;2023-07-08T06:09:59;5.70;;;5.10;;
3066;SDS011;1544;48.834;9.194;2023-07-08T06:12:35;7.10;;;5.17;;
3066;SDS011;1544;48.834;9.194;2023-07-08T06:15:11;9.20;;;6.30;;
3066;SDS011;1544;48.834;9.194;2023-07-08T06:17:47;7.53;;;6.20;;
3066;SDS011;1544;48.834;9.194;2023-07-08T06:20:23;5.10;;;4.70;;
3066;SDS011;1544;48.834;9.194;2023-07-08T06:22:59;5.20;;;4.70;;
3066;SDS011;1544;48.834;9.194;2023-07-08T06:25:36;5.07;;;4.60;;
3066;SDS011;1544;48.834;9.194;2023-07-08T06:28:12;5.60;;;4.87;;
3066;SDS011;1544;48.834;9.194;2023-07-08T06:30:48;5.03;;;4.63;;
3066;SDS011;1544;48.834;9.194;2023-07-08T06:33:25;6.10;;;5.47;;
3066;SDS011;1544;48.834;9.194;2023-07-08T06:36:01;6.20;;;5.60;;
3066;SDS011;1544;48.834;9.194;2023-07-08T06:38:37;8.20;;;5.37;;
3066;SDS011;1544;48.834;9.194;2023-07-08T06:41:13;5.63;;;5.00;;
3066;SDS011;1544;48.834;9.194;2023-07-08T06:43:49;6.23;;;5.50;;
3066;SDS011;1544;48.834;9.194;2023-07-08T06:46:26;6.73;;;5.57;;
3066;SDS011;1544;48.834;9.194;2023-07-08T06:49:02;8.00;;;5.67;;
3066;SDS011;1544;48.834;9.194;2023-07-08T06:51:38;7.57;;;5.10;;
3066;SDS011;1544;48.834;9.194;2023-07-08T06:54:15;5.43;;;4.93;;
3066;SDS011;1544;48.834;9.194;2023-07-08T06:56:50;6.80;;;4.20;;
3066;SDS011;1544;48.834;9.194;2023-07-08T06:59:26;4.50;;;4.10;;
3066;SDS011;1544;48.834;9.194;2023-07-08T07:02:03;4.63;;;4.23;;
3066;SDS011;1544;48.834;9.194;2023-07-08T07:04:39;5.20;;;4.67;;
3066;SDS011;1544;48.834;9.194;2023-07-08T07:07:15;3.43;;;3.13;;
3066;SDS011;1544;48.834;9.194;2023-07-08T07:09:53;5.87;;;3.57;;
3066;SDS011;1544;48.834;9.194;2023-07-08T07:12:29;3.97;;;3.60;;
3066;SDS011;1544;48.834;9.194;2023-07-08T07:15:05;3.63;;;3.33;;
3066;SDS011;1544;48.834;9.194;2023-07-08T07:17:42;6.53;;;3.70;;
3066;SDS011;1544;48.834;9.194;2023-07-08T07:20:18;3.77;;;3.17;;
3066;SDS011;1544;48.834;9.194;2023-07-08T07:22:54;3.23;;;2.80;;
3066;SDS011;1544;48.834;9.194;2023-07-08T07:25:30;3.60;;;3.30;;
3066;SDS011;1544;48.834;9.194;2023-07-08T07:28:06;4.57;;;3.80;;
3066;SDS011;1544;48.834;9.194;2023-07-08T07:30:43;6.10;;;3.90;;
3066;SDS011;1544;48.834;9.194;2023-07-08T07:33:20;3.60;;;3.30;;
3066;SDS011;1544;48.834;9.194;2023-07-08T07:35:56;3.43;;;3.23;;
3066;SDS011;1544;48.834;9.194;2023-07-08T07:38:32;3.13;;;2.90;;
3066;SDS011;1544;48.834;9.194;2023-07-08T07:41:09;5.23;;;3.83;;
3066;SDS011;1544;48.834;9.194;2023-07-08T07:43:46;5.57;;;4.93;;
3066;SDS011;1544;48.834;9.194;2023-07-08T07:46:22;5.43;;;4.57;;
3066;SDS011;1544;48.834;9.194;2023-07-08T07:48:58;4.90;;;4.47;;
3066;SDS011;1544;48.834;9.194;2023-07-08T07:51:34;5.30;;;4.80;;
3066;SDS011;1544;48.834;9.194;2023-07-08T07:54:09;6.90;;;5.07;;
3066;SDS011;1544;48.834;9.194;2023-07-08T07:56:45;4.80;;;4.30;;
3066;SDS011;1544;48.834;9.194;2023-07-08T07:59:21;5.30;;;4.90;;
3066;SDS011;1544;48.834;9.194;2023-07-08T08:01:57;5.60;;;5.10;;
3066;SDS011;1544;48.834;9.194;2023-07-08T08:04:33;5.80;;;4.40;;
3066;SDS011;1544;48.834;9.194;2023-07-08T08:07:10;4.83;;;4.40;;
3066;SDS011;1544;48.834;9.194;2023-07-08T08:09:45;5.00;;;4.60;;
3066;SDS011;1544;48.834;9.194;2023-07-08T08:12:21;6.30;;;4.80;;
3066;SDS011;1544;48.834;9.194;2023-07-08T08:14:59;4.63;;;4.23;;
3066;SDS011;1544;48.834;9.194;2023-07-08T08:17:35;5.70;;;5.20;;
3066;SDS011;1544;48.834;9.194;2023-07-08T08:20:11;4.50;;;4.10;;
3066;SDS011;1544;48.834;9.194;2023-07-08T08:22:48;5.20;;;4.77;;
3066;SDS011;1544;48.834;9.194;2023-07-08T08:25:24;5.00;;;4.60;;
3066;SDS011;1544;48.834;9.194;2023-07-08T08:28:00;4.37;;;3.90;;
3066;SDS011;1544;48.834;9.194;2023-07-08T08:30:36;4.63;;;4.23;;
3066;SDS011;1544;48.834;9.194;2023-07-08T08:33:12;4.30;;;4.00;;
3066;SDS011;1544;48.834;9.194;2023-07-08T08:35:48;4.17;;;3.77;;
3066;SDS011;1544;48.834;9.194;2023-07-08T08:38:24;3.83;;;3.53;;
3066;SDS011;1544;48.834;9.194;2023-07-08T08:41:04;5.67;;;4.30;;
3066;SDS011;1544;48.834;9.194;2023-07-08T08:43:54;3.30;;;3.10;;
3066;SDS011;1544;48.834;9.194;2023-07-08T08:46:43;5.40;;;3.50;;
3066;SDS011;1544;48.834;9.194;2023-07-08T08:49:28;4.53;;;3.80;;
3066;SDS011;1544;48.834;9.194;2023-07-08T08:52:13;4.50;;;4.10;;
3066;SDS011;1544;48.834;9.194;2023-07-08T08:54:49;4.80;;;4.40;;
3066;SDS011;1544;48.834;9.194;2023-07-08T09:00:18;3.97;;;3.67;;
3066;SDS011;1544;48.834;9.194;2023-07-08T09:03:15;3.67;;;3.30;;
3066;SDS011;1544;48.834;9.194;2023-07-08T09:05:54;2.37;;;1.50;;
3066;SDS011;1544;48.834;9.194;2023-07-08T09:08:34;3.37;;;1.60;;
3066;SDS011;1544;48.834;9.194;2023-07-08T09:14:16;1.93;;;1.83;;
3066;SDS011;1544;48.834;9.194;2023-07-08T09:25:56;1.90;;;1.57;;
3066;SDS011;1544;48.834;9.194;2023-07-08T09:28:59;1.40;;;1.30;;
3066;SDS011;1544;48.834;9.194;2023-07-08T09:31:37;1.70;;;1.60;;
3066;SDS011;1544;48.834;9.194;2023-07-08T09:34:19;2.77;;;1.30;;
3066;SDS011;1544;48.834;9.194;2023-07-08T09:36:58;5.70;;;1.47;;
3066;SDS011;1544;48.834;9.194;2023-07-08T09:39:35;1.40;;;1.30;;
3066;SDS011;1544;48.834;9.194;2023-07-08T09:42:12;2.40;;;1.10;;
3066;SDS011;1544;48.834;9.194;2023-07-08T09:44:54;1.53;;;1.40;;
3066;SDS011;1544;48.834;9.194;2023-07-08T09:47:45;1.70;;;1.60;;
3066;SDS011;1544;48.834;9.194;2023-07-08T09:50:23;2.33;;;1.50;;
3066;SDS011;1544;48.834;9.194;2023-07-08T09:53:10;1.70;;;1.60;;
3066;SDS011;1544;48.834;9.194;2023-07-08T09:55:49;1.90;;;1.80;;
3066;SDS011;1544;48.834;9.194;2023-07-08T09:58:30;1.77;;;1.67;;
3066;SDS011;1544;48.834;9.194;2023-07-08T10:01:13;1.50;;;1.40;;
3066;SDS011;1544;48.834;9.194;2023-07-08T10:03:58;1.67;;;1.57;;
3066;SDS011;1544;48.834;9.194;2023-07-08T10:06:36;1.60;;;1.50;;
3066;SDS011;1544;48.834;9.194;2023-07-08T10:09:12;2.20;;;1.60;;
3066;SDS011;1544;48.834;9.194;2023-07-08T10:11:56;1.83;;;1.40;;
3066;SDS011;1544;48.834;9.194;2023-07-08T10:14:39;2.47;;;1.67;;
3066;SDS011;1544;48.834;9.194;2023-07-08T10:17:47;1.63;;;1.53;;
3066;SDS011;1544;48.834;9.194;2023-07-08T10:20:23;2.03;;;1.90;;
3066;SDS011;1544;48.834;9.194;2023-07-08T10:26:31;2.57;;;2.37;;
3066;SDS011;1544;48.834;9.194;2023-07-08T10:29:29;2.40;;;2.23;;
3066;SDS011;1544;48.834;9.194;2023-07-08T10:32:44;2.40;;;2.20;;
3066;SDS011;1544;48.834;9.194;2023-07-08T10:35:39;7.40;;;3.10;;
3066;SDS011;1544;48.834;9.194;2023-07-08T10:38:35;7.17;;;3.10;;
3066;SDS011;1544;48.834;9.194;2023-07-08T10:41:45;3.10;;;2.77;;
3066;SDS011;1544;48.834;9.194;2023-07-08T10:53:42;3.70;;;3.40;;
3066;SDS011;1544;48.834;9.194;2023-07-08T11:00:00;3.20;;;3.00;;
3066;SDS011;1544;48.834;9.194;2023-07-08T11:05:43;3.50;;;3.20;;
3066;SDS011;1544;48.834;9.194;2023-07-08T11:08:29;5.03;;;2.80;;
3066;SDS011;1544;48.834;9.194;2023-07-08T11:11:16;3.60;;;3.30;;
3066;SDS011;1544;48.834;9.194;2023-07-08T11:14:20;2.30;;;2.10;;
3066;SDS011;1544;48.834;9.194;2023-07-08T11:17:10;2.90;;;2.33;;
3066;SDS011;1544;48.834;9.194;2023-07-08T11:20:36;2.83;;;2.47;;
3066;SDS011;1544;48.834;9.194;2023-07-08T11:23:22;2.17;;;1.97;;
3066;SDS011;1544;48.834;9.194;2023-07-08T11:29:00;2.10;;;2.00;;
3066;SDS011;1544;48.834;9.194;2023-07-08T11:31:38;2.30;;;2.10;;
3066;SDS011;1544;48.834;9.194;2023-07-08T11:34:15;3.43;;;2.33;;
3066;SDS011;1544;48.834;9.194;2023-07-08T11:36:53;2.67;;;2.47;;
3066;SDS011;1544;48.834;9.194;2023-07-08T11:39:32;2.87;;;2.33;;
3066;SDS011;1544;48.834;9.194;2023-07-08T11:42:15;2.37;;;2.00;;
3066;SDS011;1544;48.834;9.194;2023-07-08T11:44:59;2.30;;;2.10;;
3066;SDS011;1544;48.834;9.194;2023-07-08T11:50:23;2.77;;;2.57;;
3066;SDS011;1544;48.834;9.194;2023-07-08T11:58:58;2.70;;;2.13;;
3066;SDS011;1544;48.834;9.194;2023-07-08T12:01:48;3.67;;;2.67;;
3066;SDS011;1544;48.834;9.194;2023-07-08T12:04:58;3.60;;;1.90;;
3066;SDS011;1544;48.834;9.194;2023-07-08T12:07:50;2.03;;;1.80;;
3066;SDS011;1544;48.834;9.194;2023-07-08T12:10:54;3.50;;;2.20;;
3066;SDS011;1544;48.834;9.194;2023-07-08T12:13:32;1.80;;;1.70;;
3066;SDS011;1544;48.834;9.194;2023-07-08T12:16:09;2.00;;;1.77;;
3066;SDS011;1544;48.834;9.194;2023-07-08T12:18:47;2.30;;;2.10;;
3066;SDS011;1544;48.834;9.194;2023-07-08T12:21:26;2.13;;;1.80;;
3066;SDS011;1544;48.834;9.194;2023-07-08T12:24:03;2.93;;;1.73;;
3066;SDS011;1544;48.834;9.194;2023-07-08T12:26:41;1.93;;;1.60;;
3066;SDS011;1544;48.834;9.194;2023-07-08T12:29:17;4.80;;;1.60;;
3066;SDS011;1544;48.834;9.194;2023-07-08T12:31:53;1.93;;;1.83;;
3066;SDS011;1544;48.834;9.194;2023-07-08T12:34:29;1.90;;;1.80;;
3066;SDS011;1544;48.834;9.194;2023-07-08T12:37:09;2.50;;;2.30;;
3066;SDS011;1544;48.834;9.194;2023-07-08T12:39:57;2.63;;;2.00;;
3066;SDS011;1544;48.834;9.194;2023-07-08T12:42:39;3.60;;;1.80;;
3066;SDS011;1544;48.834;9.194;2023-07-08T12:45:16;2.20;;;1.67;;
3066;SDS011;1544;48.834;9.194;2023-07-08T12:47:56;1.60;;;1.47;;
3066;SDS011;1544;48.834;9.194;2023-07-08T12:50:32;2.30;;;1.60;;
3066;SDS011;1544;48.834;9.194;2023-07-08T12:53:10;1.93;;;1.83;;
3066;SDS011;1544;48.834;9.194;2023-07-08T12:55:48;1.97;;;1.87;;
3066;SDS011;1544;48.834;9.194;2023-07-08T12:58:28;1.60;;;1.50;;
3066;SDS011;1544;48.834;9.194;2023-07-08T13:01:07;1.97;;;1.73;;
3066;SDS011;1544;48.834;9.194;2023-07-08T13:03:54;1.90;;;1.80;;
3066;SDS011;1544;48.834;9.194;2023-07-08T13:06:36;1.80;;;1.43;;
3066;SDS011;1544;48.834;9.194;2023-07-08T13:09:21;1.87;;;1.77;;
3066;SDS011;1544;48.834;9.194;2023-07-08T13:12:19;1.60;;;1.50;;
3066;SDS011;1544;48.834;9.194;2023-07-08T13:14:59;1.80;;;1.70;;
3066;SDS011;1544;48.834;9.194;2023-07-08T13:17:35;2.10;;;1.90;;
3066;SDS011;1544;48.834;9.194;2023-07-08T13:20:14;1.60;;;1.50;;
3066;SDS011;1544;48.834;9.194;2023-07-08T13:22:53;1.90;;;1.80;;
3066;SDS011;1544;48.834;9.194;2023-07-08T13:25:37;2.43;;;1.63;;
3066;SDS011;1544;48.834;9.194;2023-07-08T13:28:18;4.03;;;1.60;;
3066;SDS011;1544;48.834;9.194;2023-07-08T13:31:00;2.33;;;1.67;;
3066;SDS011;1544;48.834;9.194;2023-07-08T13:33:44;1.50;;;1.40;;
3066;SDS011;1544;48.834;9.194;2023-07-08T13:36:31;1.70;;;1.60;;
3066;SDS011;1544;48.834;9.194;2023-07-08T13:39:15;1.93;;;1.83;;
3066;SDS011;1544;48.834;9.194;2023-07-08T13:41:58;2.87;;;2.20;;
3066;SDS011;1544;48.834;9.194;2023-07-08T13:44:41;1.60;;;1.50;;
3066;SDS011;1544;48.834;9.194;2023-07-08T13:47:21;1.70;;;1.60;;
3066;SDS011;1544;48.834;9.194;2023-07-08T13:50:06;2.03;;;1.53;;
3066;SDS011;1544;48.834;9.194;2023-07-08T13:52:54;1.83;;;1.67;;
3066;SDS011;1544;48.834;9.194;2023-07-08T13:55:31;1.57;;;1.47;;
3066;SDS011;1544;48.834;9.194;2023-07-08T13:58:07;2.50;;;1.40;;
3066;SDS011;1544;48.834;9.194;2023-07-08T14:00:50;2.27;;;2.17;;
3066;SDS011;1544;48.834;9.194;2023-07-08T14:03:26;1.67;;;1.57;;
3066;SDS011;1544;48.834;9.194;2023-07-08T14:06:02;1.63;;;1.37;;
3066;SDS011;1544;48.834;9.194;2023-07-08T14:08:38;1.97;;;1.40;;
3066;SDS011;1544;48.834;9.194;2023-07-08T14:11:14;2.60;;;1.63;;
3066;SDS011;1544;48.834;9.194;2023-07-08T14:13:50;1.50;;;1.40;;
3066;SDS011;1544;48.834;9.194;2023-07-08T14:16:28;2.23;;;1.40;;
3066;SDS011;1544;48.834;9.194;2023-07-08T14:19:07;2.70;;;1.80;;
3066;SDS011;1544;48.834;9.194;2023-07-08T14:21:54;1.80;;;1.30;;
3066;SDS011;1544;48.834;9.194;2023-07-08T14:24:32;1.10;;;1.10;;
3066;SDS011;1544;48.834;9.194;2023-07-08T14:27:09;1.50;;;1.40;;
3066;SDS011;1544;48.834;9.194;2023-07-08T14:29:50;2.40;;;1.37;;
3066;SDS011;1544;48.834;9.194;2023-07-08T14:32:27;1.30;;;1.20;;
3066;SDS011;1544;48.834;9.194;2023-07-08T14:37:52;1.77;;;1.50;;
3066;SDS011;1544;48.834;9.194;2023-07-08T14:40:33;1.80;;;1.70;;
3066;SDS011;1544;48.834;9.194;2023-07-08T14:43:20;1.70;;;1.60;;
3066;SDS011;1544;48.834;9.194;2023-07-08T14:46:03;1.80;;;1.60;;
3066;SDS011;1544;48.834;9.194;2023-07-08T14:48:40;1.57;;;1.40;;
3066;SDS011;1544;48.834;9.194;2023-07-08T14:51:16;1.73;;;1.63;;
3066;SDS011;1544;48.834;9.194;2023-07-08T14:53:52;1.60;;;1.50;;
3066;SDS011;1544;48.834;9.194;2023-07-08T14:56:31;4.90;;;1.80;;
3066;SDS011;1544;48.834;9.194;2023-07-08T14:59:11;1.63;;;1.53;;
3066;SDS011;1544;48.834;9.194;2023-07-08T15:01:51;2.10;;;1.90;;
3066;SDS011;1544;48.834;9.194;2023-07-08T15:04:30;1.97;;;1.60;;
3066;SDS011;1544;48.834;9.194;2023-07-08T15:07:07;2.00;;;1.60;;
3066;SDS011;1544;48.834;9.194;2023-07-08T15:09:44;3.97;;;1.73;;
3066;SDS011;1544;48.834;9.194;2023-07-08T15:12:20;2.33;;;1.60;;
3066;SDS011;1544;48.834;9.194;2023-07-08T15:14:56;3.90;;;1.63;;
3066;SDS011;1544;48.834;9.194;2023-07-08T15:17:32;3.77;;;1.60;;
3066;SDS011;1544;48.834;9.194;2023-07-08T15:20:12;5.30;;;1.70;;
3066;SDS011;1544;48.834;9.194;2023-07-08T15:22:50;1.77;;;1.67;;
3066;SDS011;1544;48.834;9.194;2023-07-08T15:25:26;1.77;;;1.67;;
3066;SDS011;1544;48.834;9.194;2023-07-08T15:28:02;1.75;;;1.65;;
3066;SDS011;1544;48.834;9.194;2023-07-08T15:30:40;2.33;;;1.67;;
3066;SDS011;1544;48.834;9.194;2023-07-08T15:33:16;2.50;;;1.85;;
3066;SDS011;1544;48.834;9.194;2023-07-08T15:35:52;2.10;;;1.67;;
3066;SDS011;1544;48.834;9.194;2023-07-08T15:38:28;1.88;;;1.77;;
3066;SDS011;1544;48.834;9.194;2023-07-08T15:41:04;1.75;;;1.40;;
3066;SDS011;1544;48.834;9.194;2023-07-08T15:43:40;1.50;;;1.40;;
3066;SDS011;1544;48.834;9.194;2023-07-08T15:46:16;2.42;;;1.40;;
3066;SDS011;1544;48.834;9.194;2023-07-08T15:48:52;1.40;;;1.40;;
3066;SDS011;1544;48.834;9.194;2023-07-08T15:51:28;1.60;;;1.50;;
3066;SDS011;1544;48.834;9.194;2023-07-08T15:54:04;1.70;;;1.60;;
3066;SDS011;1544;48.834;9.194;2023-07-08T15:56:40;1.60;;;1.50;;
3066;SDS011;1544;48.834;9.194;2023-07-08T15:59:35;1.73;;;1.63;;
3066;SDS011;1544;48.834;9.194;2023-07-08T16:02:24;1.90;;;1.58;;
3066;SDS011;1544;48.834;9.194;2023-07-08T16:05:03;1.85;;;1.67;;
3066;SDS011;1544;48.834;9.194;2023-07-08T16:07:39;1.67;;;1.58;;
3066;SDS011;1544;48.834;9.194;2023-07-08T16:10:15;2.15;;;1.95;;
3066;SDS011;1544;48.834;9.194;2023-07-08T16:12:52;1.90;;;1.60;;
3066;SDS011;1544;48.834;9.194;2023-07-08T16:15:29;1.88;;;1.50;;
3066;SDS011;1544;48.834;9.194;2023-07-08T16:18:10;2.70;;;2.20;;
3066;SDS011;1544;48.834;9.194;2023-07-08T16:20:47;1.90;;;1.80;;
3066;SDS011;1544;48.834;9.194;2023-07-08T16:23:24;1.88;;;1.77;;
3066;SDS011;1544;48.834;9.194;2023-07-08T16:26:00;2.03;;;1.92;;
3066;SDS011;1544;48.834;9.194;2023-07-08T16:28:38;2.58;;;2.38;;
3066;SDS011;1544;48.834;9.194;2023-07-08T16:31:21;2.05;;;1.95;;
3066;SDS011;1544;48.834;9.194;2023-07-08T16:34:02;1.70;;;1.60;;
3066;SDS011;1544;48.834;9.194;2023-07-08T16:36:39;1.63;;;1.52;;
3066;SDS011;1544;48.834;9.194;2023-07-08T16:39:16;1.90;;;1.80;;
3066;SDS011;1544;48.834;9.194;2023-07-08T16:41:51;2.15;;;1.88;;
3066;SDS011;1544;48.834;9.194;2023-07-08T16:44:27;2.03;;;1.92;;
3066;SDS011;1544;48.834;9.194;2023-07-08T16:47:03;1.70;;;1.60;;
3066;SDS011;1544;48.834;9.194;2023-07-08T16:49:39;1.80;;;1.70;;
3066;SDS011;1544;48.834;9.194;2023-07-08T16:52:15;1.85;;;1.75;;
3066;SDS011;1544;48.834;9.194;2023-07-08T16:54:53;2.05;;;1.77;;
3066;SDS011;1544;48.834;9.194;2023-07-08T16:57:29;1.80;;;1.70;;
3066;SDS011;1544;48.834;9.194;2023-07-08T17:00:05;1.75;;;1.65;;
3066;SDS011;1544;48.834;9.194;2023-07-08T17:02:42;2.00;;;1.70;;
3066;SDS011;1544;48.834;9.194;2023-07-08T17:05:23;2.88;;;1.70;;
3066;SDS011;1544;48.834;9.194;2023-07-08T17:08:04;3.58;;;2.00;;
3066;SDS011;1544;48.834;9.194;2023-07-08T17:10:40;2.10;;;2.00;;
3066;SDS011;1544;48.834;9.194;2023-07-08T17:13:17;2.03;;;1.90;;
3066;SDS011;1544;48.834;9.194;2023-07-08T17:15:53;4.28;;;2.08;;
3066;SDS011;1544;48.834;9.194;2023-07-08T17:18:29;1.73;;;1.63;;
3066;SDS011;1544;48.834;9.194;2023-07-08T17:21:07;2.03;;;1.92;;